< Typhoon 196705 1967 Season Typhoon 196707 >
Typhoon 196706 (ANITA)
General InformationTrack Information on Google Maps || Disaster Info.ResourceGoogle EarthGE AnimationAtom FeedGeoJSON
Detalied Best Track (Time Zone = UTC)
Year Month Day Hour Lat. Long. Pressure (hPa) Wind (kt) Class Image Chart
1967 6 24 00 10.0 142.0 1008 0 2 -- Chart
1967 6 24 06 10.3 141.3 1006 0 2 -- Chart
1967 6 24 12 10.6 140.5 1006 0 2 -- Chart
1967 6 24 18 10.9 139.8 1006 0 2 -- Chart
1967 6 25 00 11.0 139.0 1006 0 2 -- Chart
1967 6 25 06 11.0 137.8 1004 0 2 -- Chart
1967 6 25 12 11.1 136.5 1004 0 2 -- Chart
1967 6 25 18 11.2 135.0 1004 0 2 -- Chart
1967 6 26 00 11.4 133.8 1002 0 2 -- Chart
1967 6 26 06 11.8 132.5 1000 0 2 -- Chart
1967 6 26 12 12.5 131.4 1000 0 2 -- Chart
1967 6 26 18 13.4 130.3 1000 0 2 -- Chart
1967 6 27 00 14.1 129.3 997 0 9 -- Chart
1967 6 27 06 15.0 128.1 996 0 9 -- Chart
1967 6 27 12 15.8 126.7 988 0 9 -- Chart
1967 6 27 18 16.6 125.6 984 0 9 -- Chart
1967 6 28 00 17.2 124.5 980 0 9 -- Chart
1967 6 28 06 18.0 123.6 980 0 9 -- Chart
1967 6 28 12 18.6 122.5 978 0 9 -- Chart
1967 6 28 18 19.3 121.4 978 0 9 -- Chart
1967 6 29 00 19.8 120.5 978 0 9 -- Chart
1967 6 29 06 20.5 119.6 978 0 9 -- Chart
1967 6 29 12 21.0 118.8 975 0 9 -- Chart
1967 6 29 18 21.6 117.7 975 0 9 -- Chart
1967 6 30 00 21.9 116.6 975 0 9 -- Chart
1967 6 30 06 23.0 116.0 980 0 9 -- Chart
1967 6 30 12 24.4 115.1 980 0 9 -- Chart
1967 6 30 18 26.5 114.5 994 0 2 -- Chart
1967 7 1 00 28.0 115.0 998 0 2 -- Chart
Japan Meteorological Agency Best Track Data | Correction Date : 1989-06-01
< Typhoon 196705 1967 Season Typhoon 196707 >

Help